Terminal Aerodrome Forecast
Issued by NWS

Home | Current Version | Previous Version | Text Only | Print | Product List | Glossary On
Versions: 1 2 3 4 5 6 7 8 9 10 11 12 13 14 15 16 17 18 19 20 21 22 23 24 25 26 27 28 29 30 31 32 33 34 35 36 37 38 39 40 41 42 43 44 45 46 47 48 49 50
000
FTUS44 KHGX 241145
TAFLBX
TAF
KLBX 241145Z 2412/2512 15012KT P6SM VCSH SCT023
      TEMPO 2412/2414 VRB15G30KT 1SM +TSRA BR BKN006 OVC020CB
     FM241400 15015G22KT P6SM VCSH SCT007 BKN020
      TEMPO 2415/2417 5SM TSRA BKN015CB OVC050
     FM241900 17017KT P6SM -SHRA SCT007 BKN025
     FM250300 16010KT P6SM BKN050=

USA.gov is the U.S. government's official web portal to all federal, state and local government web resources and services.